sensor_id;sensor_type;location;lat;lon;timestamp;pressure;altitude;pressure_sealevel;temperature;humidity
39891;BME280;25564;53.312;9.790;2023-02-14T00:02:21;103020.47;;;6.69;100.00
39891;BME280;25564;53.312;9.790;2023-02-14T00:04:52;103025.81;;;6.70;100.00
39891;BME280;25564;53.312;9.790;2023-02-14T00:07:24;103023.94;;;6.68;100.00
39891;BME280;25564;53.312;9.790;2023-02-14T00:09:55;103015.09;;;6.66;100.00
39891;BME280;25564;53.312;9.790;2023-02-14T00:12:26;103001.34;;;6.50;100.00
39891;BME280;25564;53.312;9.790;2023-02-14T00:14:57;103016.66;;;6.61;100.00
39891;BME280;25564;53.312;9.790;2023-02-14T00:17:48;103016.66;;;6.61;100.00
39891;BME280;25564;53.312;9.790;2023-02-14T00:20:21;103014.88;;;6.60;100.00
39891;BME280;25564;53.312;9.790;2023-02-14T00:22:53;103014.88;;;6.60;100.00
39891;BME280;25564;53.312;9.790;2023-02-14T00:25:24;103018.34;;;6.59;100.00
39891;BME280;25564;53.312;9.790;2023-02-14T00:27:55;103017.50;;;6.60;100.00
39891;BME280;25564;53.312;9.790;2023-02-14T00:30:27;103027.22;;;6.61;100.00
39891;BME280;25564;53.312;9.790;2023-02-14T00:32:58;103020.16;;;6.60;100.00
39891;BME280;25564;53.312;9.790;2023-02-14T00:35:29;103022.78;;;6.60;100.00
39891;BME280;25564;53.312;9.790;2023-02-14T00:38:01;103018.34;;;6.59;100.00
39891;BME280;25564;53.312;9.790;2023-02-14T00:40:32;103010.22;;;6.52;100.00
39891;BME280;25564;53.312;9.790;2023-02-14T00:43:03;103021.72;;;6.54;100.00
39891;BME280;25564;53.312;9.790;2023-02-14T00:45:34;103018.97;;;6.51;100.00
39891;BME280;25564;53.312;9.790;2023-02-14T00:48:06;103007.47;;;6.49;100.00
39891;BME280;25564;53.312;9.790;2023-02-14T00:50:37;103014.53;;;6.50;100.00
39891;BME280;25564;53.312;9.790;2023-02-14T00:53:08;103010.09;;;6.49;100.00
39891;BME280;25564;53.312;9.790;2023-02-14T00:55:40;102985.81;;;6.34;100.00
39891;BME280;25564;53.312;9.790;2023-02-14T00:58:11;103008.19;;;6.45;100.00
39891;BME280;25564;53.312;9.790;2023-02-14T01:00:43;102999.94;;;6.36;100.00
39891;BME280;25564;53.312;9.790;2023-02-14T01:03:14;103014.09;;;6.38;100.00
39891;BME280;25564;53.312;9.790;2023-02-14T01:05:46;103009.81;;;6.42;100.00
39891;BME280;25564;53.312;9.790;2023-02-14T01:08:18;103006.25;;;6.40;100.00
39891;BME280;25564;53.312;9.790;2023-02-14T01:10:50;103001.84;;;6.40;100.00
39891;BME280;25564;53.312;9.790;2023-02-14T01:13:21;102995.56;;;6.37;100.00
39891;BME280;25564;53.312;9.790;2023-02-14T01:15:52;102999.94;;;6.36;100.00
39891;BME280;25564;53.312;9.790;2023-02-14T01:18:24;102988.22;;;6.28;100.00
39891;BME280;25564;53.312;9.790;2023-02-14T01:20:55;103004.31;;;6.36;100.00
39891;BME280;25564;53.312;9.790;2023-02-14T01:23:26;103005.13;;;6.33;100.00
39891;BME280;25564;53.312;9.790;2023-02-14T01:25:58;103001.47;;;6.30;100.00
39891;BME280;25564;53.312;9.790;2023-02-14T01:28:33;102998.84;;;6.30;100.00
39891;BME280;25564;53.312;9.790;2023-02-14T01:31:10;102997.94;;;6.29;100.00
39891;BME280;25564;53.312;9.790;2023-02-14T01:33:44;103005.84;;;6.29;100.00
39891;BME280;25564;53.312;9.790;2023-02-14T01:36:18;102992.66;;;6.29;100.00
39891;BME280;25564;53.312;9.790;2023-02-14T01:38:53;102987.28;;;6.26;100.00
39891;BME280;25564;53.312;9.790;2023-02-14T01:41:26;102986.31;;;6.24;100.00
39891;BME280;25564;53.312;9.790;2023-02-14T01:44:05;102991.56;;;6.22;100.00
39891;BME280;25564;53.312;9.790;2023-02-14T01:46:36;102993.31;;;6.22;100.00
39891;BME280;25564;53.312;9.790;2023-02-14T01:49:14;102986.19;;;6.19;100.00
39891;BME280;25564;53.312;9.790;2023-02-14T01:52:10;102985.28;;;6.19;100.00
39891;BME280;25564;53.312;9.790;2023-02-14T01:54:48;102974.63;;;6.16;100.00
39891;BME280;25564;53.312;9.790;2023-02-14T01:57:23;102974.53;;;6.13;100.00
39891;BME280;25564;53.312;9.790;2023-02-14T01:59:58;102970.94;;;6.11;100.00
39891;BME280;25564;53.312;9.790;2023-02-14T02:02:51;102969.13;;;6.10;100.00
39891;BME280;25564;53.312;9.790;2023-02-14T02:05:23;102974.28;;;6.07;100.00
39891;BME280;25564;53.312;9.790;2023-02-14T02:07:56;102946.31;;;5.88;100.00
39891;BME280;25564;53.312;9.790;2023-02-14T02:10:29;102975.84;;;6.02;100.00
39891;BME280;25564;53.312;9.790;2023-02-14T02:13:12;102974.06;;;6.01;100.00
39891;BME280;25564;53.312;9.790;2023-02-14T02:15:57;102976.63;;;5.99;100.00
39891;BME280;25564;53.312;9.790;2023-02-14T02:19:26;102973.94;;;5.98;100.00
39891;BME280;25564;53.312;9.790;2023-02-14T02:21:41;102965.94;;;5.95;100.00
39891;BME280;25564;53.312;9.790;2023-02-14T02:24:23;102949.69;;;5.84;100.00
39891;BME280;25564;53.312;9.790;2023-02-14T02:27:17;102959.59;;;5.89;100.00
39891;BME280;25564;53.312;9.790;2023-02-14T02:30:13;102947.78;;;5.80;100.00
39891;BME280;25564;53.312;9.790;2023-02-14T02:32:57;102955.72;;;5.81;100.00
39891;BME280;25564;53.312;9.790;2023-02-14T02:35:49;102944.78;;;5.71;100.00
39891;BME280;25564;53.312;9.790;2023-02-14T02:38:36;102947.53;;;5.74;100.00
39891;BME280;25564;53.312;9.790;2023-02-14T02:41:32;102953.59;;;5.71;100.00
39891;BME280;25564;53.312;9.790;2023-02-14T02:46:54;102959.56;;;5.67;100.00
39891;BME280;25564;53.312;9.790;2023-02-14T02:49:44;102956.94;;;5.67;100.00
39891;BME280;25564;53.312;9.790;2023-02-14T02:55:42;102947.25;;;5.66;100.00
39891;BME280;25564;53.312;9.790;2023-02-14T03:01:13;102945.50;;;5.67;100.00
39891;BME280;25564;53.312;9.790;2023-02-14T03:03:47;102939.34;;;5.66;100.00
39891;BME280;25564;53.312;9.790;2023-02-14T03:06:38;102949.88;;;5.66;100.00
39891;BME280;25564;53.312;9.790;2023-02-14T03:14:53;102929.13;;;5.51;100.00
39891;BME280;25564;53.312;9.790;2023-02-14T03:20:44;102946.28;;;5.64;100.00
39891;BME280;25564;53.312;9.790;2023-02-14T03:23:20;102943.66;;;5.64;100.00
39891;BME280;25564;53.312;9.790;2023-02-14T03:26:13;102946.34;;;5.66;100.00
39891;BME280;25564;53.312;9.790;2023-02-14T03:32:12;102930.47;;;5.64;100.00
39891;BME280;25564;53.312;9.790;2023-02-14T03:34:54;102908.16;;;5.54;100.00
39891;BME280;25564;53.312;9.790;2023-02-14T03:37:32;102924.56;;;5.70;100.00
39891;BME280;25564;53.312;9.790;2023-02-14T03:40:15;102934.31;;;5.72;100.00
39891;BME280;25564;53.312;9.790;2023-02-14T03:45:47;102927.97;;;5.67;100.00
39891;BME280;25564;53.312;9.790;2023-02-14T03:48:20;102930.53;;;5.66;100.00
39891;BME280;25564;53.312;9.790;2023-02-14T03:50:54;102927.00;;;5.65;100.00
39891;BME280;25564;53.312;9.790;2023-02-14T03:53:31;102909.78;;;5.51;100.00
39891;BME280;25564;53.312;9.790;2023-02-14T03:56:12;102924.97;;;5.58;100.00
39891;BME280;25564;53.312;9.790;2023-02-14T03:58:47;102922.84;;;5.48;100.00
39891;BME280;25564;53.312;9.790;2023-02-14T04:01:24;102918.16;;;5.41;100.00
39891;BME280;25564;53.312;9.790;2023-02-14T04:03:59;102922.34;;;5.36;100.00
39891;BME280;25564;53.312;9.790;2023-02-14T04:06:31;102919.66;;;5.34;100.00
39891;BME280;25564;53.312;9.790;2023-02-14T04:09:03;102915.16;;;5.32;100.00
39891;BME280;25564;53.312;9.790;2023-02-14T04:11:34;102909.72;;;5.27;100.00
39891;BME280;25564;53.312;9.790;2023-02-14T04:14:06;102880.75;;;5.03;100.00
39891;BME280;25564;53.312;9.790;2023-02-14T04:16:37;102898.44;;;5.07;100.00
39891;BME280;25564;53.312;9.790;2023-02-14T04:19:27;102901.41;;;4.94;100.00
39891;BME280;25564;53.312;9.790;2023-02-14T04:21:58;102897.50;;;4.84;100.00
39891;BME280;25564;53.312;9.790;2023-02-14T04:24:30;102903.53;;;4.82;100.00
39891;BME280;25564;53.312;9.790;2023-02-14T04:27:01;102888.03;;;4.67;100.00
39891;BME280;25564;53.312;9.790;2023-02-14T04:29:45;102897.13;;;4.75;100.00
39891;BME280;25564;53.312;9.790;2023-02-14T04:32:19;102898.03;;;4.76;100.00
39891;BME280;25564;53.312;9.790;2023-02-14T04:34:51;102899.00;;;4.78;100.00
39891;BME280;25564;53.312;9.790;2023-02-14T04:37:22;102901.69;;;4.79;100.00
39891;BME280;25564;53.312;9.790;2023-02-14T04:39:54;102882.84;;;4.69;100.00
39891;BME280;25564;53.312;9.790;2023-02-14T04:42:25;102893.69;;;4.76;100.00
39891;BME280;25564;53.312;9.790;2023-02-14T04:44:57;102893.72;;;4.78;100.00
39891;BME280;25564;53.312;9.790;2023-02-14T04:47:28;102891.16;;;4.79;100.00
39891;BME280;25564;53.312;9.790;2023-02-14T04:50:00;102887.69;;;4.80;100.00
39891;BME280;25564;53.312;9.790;2023-02-14T04:52:31;102887.63;;;4.79;100.00
39891;BME280;25564;53.312;9.790;2023-02-14T04:55:03;102881.53;;;4.80;100.00
39891;BME280;25564;53.312;9.790;2023-02-14T04:57:34;102880.78;;;4.82;100.00
39891;BME280;25564;53.312;9.790;2023-02-14T05:00:06;102877.31;;;4.83;100.00
39891;BME280;25564;53.312;9.790;2023-02-14T05:02:38;102875.63;;;4.85;100.00
39891;BME280;25564;53.312;9.790;2023-02-14T05:05:09;102869.47;;;4.85;100.00
39891;BME280;25564;53.312;9.790;2023-02-14T05:07:41;102872.09;;;4.85;100.00
39891;BME280;25564;53.312;9.790;2023-02-14T05:10:17;102871.03;;;4.80;100.00
39891;BME280;25564;53.312;9.790;2023-02-14T05:12:49;102880.13;;;4.88;100.00
39891;BME280;25564;53.312;9.790;2023-02-14T05:15:20;102881.91;;;4.89;100.00
39891;BME280;25564;53.312;9.790;2023-02-14T05:17:51;102881.91;;;4.89;100.00
39891;BME280;25564;53.312;9.790;2023-02-14T05:20:22;102878.38;;;4.88;100.00
39891;BME280;25564;53.312;9.790;2023-02-14T05:22:54;102876.53;;;4.86;100.00
39891;BME280;25564;53.312;9.790;2023-02-14T05:25:25;102874.88;;;4.88;100.00
39891;BME280;25564;53.312;9.790;2023-02-14T05:27:56;102853.44;;;4.79;100.00
39891;BME280;25564;53.312;9.790;2023-02-14T05:30:28;102861.59;;;4.85;100.00
39891;BME280;25564;53.312;9.790;2023-02-14T05:33:00;102878.56;;;4.93;100.00
39891;BME280;25564;53.312;9.790;2023-02-14T05:35:32;102877.75;;;4.94;100.00
39891;BME280;25564;53.312;9.790;2023-02-14T05:38:03;102852.44;;;4.75;100.00
39891;BME280;25564;53.312;9.790;2023-02-14T05:40:34;102872.34;;;4.91;100.00
39891;BME280;25564;53.312;9.790;2023-02-14T05:43:06;102877.03;;;4.98;100.00
39891;BME280;25564;53.312;9.790;2023-02-14T05:45:37;102875.34;;;5.00;100.00
39891;BME280;25564;53.312;9.790;2023-02-14T05:48:08;102871.06;;;5.02;100.00
39891;BME280;25564;53.312;9.790;2023-02-14T05:50:40;102877.22;;;5.03;100.00
39891;BME280;25564;53.312;9.790;2023-02-14T05:53:13;102871.09;;;5.04;100.00
39891;BME280;25564;53.312;9.790;2023-02-14T05:55:45;102853.09;;;4.92;100.00
39891;BME280;25564;53.312;9.790;2023-02-14T05:58:16;102872.91;;;5.05;100.00
39891;BME280;25564;53.312;9.790;2023-02-14T06:00:48;102858.59;;;4.98;100.00
39891;BME280;25564;53.312;9.790;2023-02-14T06:03:19;102875.53;;;5.05;100.00
39891;BME280;25564;53.312;9.790;2023-02-14T06:05:50;102877.34;;;5.06;100.00
39891;BME280;25564;53.312;9.790;2023-02-14T06:08:22;102853.22;;;4.95;100.00
39891;BME280;25564;53.312;9.790;2023-02-14T06:10:53;102873.09;;;5.09;100.00
39891;BME280;25564;53.312;9.790;2023-02-14T06:13:24;102874.81;;;5.09;100.00
39891;BME280;25564;53.312;9.790;2023-02-14T06:15:56;102821.88;;;4.79;100.00
39891;BME280;25564;53.312;9.790;2023-02-14T06:18:27;102874.81;;;5.09;100.00
39891;BME280;25564;53.312;9.790;2023-02-14T06:20:59;102862.19;;;5.00;100.00
39891;BME280;25564;53.312;9.790;2023-02-14T06:23:31;102875.72;;;5.09;100.00
39891;BME280;25564;53.312;9.790;2023-02-14T06:26:03;102847.72;;;4.89;100.00
39891;BME280;25564;53.312;9.790;2023-02-14T06:28:34;102875.47;;;5.03;100.00
39891;BME280;25564;53.312;9.790;2023-02-14T06:31:05;102886.00;;;5.03;100.00
39891;BME280;25564;53.312;9.790;2023-02-14T06:33:37;102883.31;;;5.02;100.00
39891;BME280;25564;53.312;9.790;2023-02-14T06:36:09;102868.13;;;4.95;100.00
39891;BME280;25564;53.312;9.790;2023-02-14T06:38:40;102871.47;;;4.90;100.00
39891;BME280;25564;53.312;9.790;2023-02-14T06:41:12;102884.78;;;4.95;100.00
39891;BME280;25564;53.312;9.790;2023-02-14T06:43:46;102880.97;;;4.87;100.00
39891;BME280;25564;53.312;9.790;2023-02-14T06:46:20;102893.59;;;4.75;100.00
39891;BME280;25564;53.312;9.790;2023-02-14T06:48:52;102891.31;;;4.62;100.00
39891;BME280;25564;53.312;9.790;2023-02-14T06:51:23;102887.19;;;4.47;100.00
39891;BME280;25564;53.312;9.790;2023-02-14T06:53:54;102881.28;;;4.32;100.00
39891;BME280;25564;53.312;9.790;2023-02-14T06:56:26;102890.50;;;4.22;100.00
39891;BME280;25564;53.312;9.790;2023-02-14T06:58:57;102899.69;;;4.11;100.00
39891;BME280;25564;53.312;9.790;2023-02-14T07:01:28;102894.78;;;4.00;100.00
39891;BME280;25564;53.312;9.790;2023-02-14T07:04:00;102877.38;;;3.82;100.00
39891;BME280;25564;53.312;9.790;2023-02-14T07:06:31;102882.78;;;3.85;100.00
39891;BME280;25564;53.312;9.790;2023-02-14T07:09:03;102886.94;;;3.80;100.00
39891;BME280;25564;53.312;9.790;2023-02-14T07:11:34;102885.97;;;3.78;100.00
39891;BME280;25564;53.312;9.790;2023-02-14T07:14:06;102890.25;;;3.76;100.00
39891;BME280;25564;53.312;9.790;2023-02-14T07:16:37;102884.91;;;3.75;100.00
39891;BME280;25564;53.312;9.790;2023-02-14T07:19:08;102888.50;;;3.77;100.00
39891;BME280;25564;53.312;9.790;2023-02-14T07:21:39;102889.41;;;3.77;100.00
39891;BME280;25564;53.312;9.790;2023-02-14T07:24:11;102884.84;;;3.73;100.00
39891;BME280;25564;53.312;9.790;2023-02-14T07:26:42;102892.88;;;3.76;100.00
39891;BME280;25564;53.312;9.790;2023-02-14T07:29:13;102870.47;;;3.65;100.00
39891;BME280;25564;53.312;9.790;2023-02-14T07:31:45;102885.81;;;3.75;100.00
39891;BME280;25564;53.312;9.790;2023-02-14T07:34:16;102876.28;;;3.77;100.00
39891;BME280;25564;53.312;9.790;2023-02-14T07:36:47;102880.69;;;3.78;100.00
39891;BME280;25564;53.312;9.790;2023-02-14T07:39:19;102857.63;;;3.71;100.00
39891;BME280;25564;53.312;9.790;2023-02-14T07:41:50;102874.91;;;3.85;100.00
39891;BME280;25564;53.312;9.790;2023-02-14T07:44:21;102869.84;;;3.90;100.00
39891;BME280;25564;53.312;9.790;2023-02-14T07:46:52;102850.22;;;3.82;100.00
39891;BME280;25564;53.312;9.790;2023-02-14T07:49:24;102859.47;;;3.93;100.00
39891;BME280;25564;53.312;9.790;2023-02-14T07:51:55;102859.69;;;3.98;100.00
39891;BME280;25564;53.312;9.790;2023-02-14T07:54:26;102872.72;;;4.15;100.00
39891;BME280;25564;53.312;9.790;2023-02-14T07:56:58;102869.63;;;4.25;100.00
39891;BME280;25564;53.312;9.790;2023-02-14T07:59:29;102869.13;;;4.34;100.00
39891;BME280;25564;53.312;9.790;2023-02-14T08:02:01;102866.94;;;4.45;100.00
39891;BME280;25564;53.312;9.790;2023-02-14T08:04:32;102873.59;;;4.57;100.00
39891;BME280;25564;53.312;9.790;2023-02-14T08:07:04;102842.81;;;4.55;100.00
39891;BME280;25564;53.312;9.790;2023-02-14T08:09:35;102866.72;;;4.82;100.00
39891;BME280;25564;53.312;9.790;2023-02-14T08:12:06;102863.69;;;4.93;100.00
39891;BME280;25564;53.312;9.790;2023-02-14T08:14:56;102871.28;;;5.08;100.00
39891;BME280;25564;53.312;9.790;2023-02-14T08:17:48;102877.13;;;5.23;100.00
39891;BME280;25564;53.312;9.790;2023-02-14T08:20:19;102863.25;;;5.28;100.00
39891;BME280;25564;53.312;9.790;2023-02-14T08:22:50;102866.56;;;5.46;100.00
39891;BME280;25564;53.312;9.790;2023-02-14T08:25:22;102874.22;;;5.62;100.00
39891;BME280;25564;53.312;9.790;2023-02-14T08:27:54;102861.44;;;5.73;100.00
39891;BME280;25564;53.312;9.790;2023-02-14T08:30:25;102881.44;;;5.90;100.00
39891;BME280;25564;53.312;9.790;2023-02-14T08:32:57;102879.28;;;6.04;100.00
39891;BME280;25564;53.312;9.790;2023-02-14T08:35:28;102876.25;;;6.17;100.00
39891;BME280;25564;53.312;9.790;2023-02-14T08:38:00;102869.63;;;6.30;100.00
39891;BME280;25564;53.312;9.790;2023-02-14T08:40:32;102864.72;;;6.40;100.00
39891;BME280;25564;53.312;9.790;2023-02-14T08:43:05;102870.38;;;6.51;100.00
39891;BME280;25564;53.312;9.790;2023-02-14T08:45:37;102856.69;;;6.63;100.00
39891;BME280;25564;53.312;9.790;2023-02-14T08:48:11;102864.22;;;6.77;100.00
39891;BME280;25564;53.312;9.790;2023-02-14T08:50:42;102859.22;;;6.86;100.00
39891;BME280;25564;53.312;9.790;2023-02-14T08:53:13;102862.25;;;6.99;100.00
39891;BME280;25564;53.312;9.790;2023-02-14T08:55:45;102864.53;;;7.15;100.00
39891;BME280;25564;53.312;9.790;2023-02-14T08:58:16;102867.59;;;7.30;100.00
39891;BME280;25564;53.312;9.790;2023-02-14T09:00:48;102866.22;;;7.43;100.00
39891;BME280;25564;53.312;9.790;2023-02-14T09:03:20;102863.09;;;7.56;100.00
39891;BME280;25564;53.312;9.790;2023-02-14T09:05:51;102862.56;;;7.68;100.00
39891;BME280;25564;53.312;9.790;2023-02-14T09:08:23;102856.66;;;7.76;100.00
39891;BME280;25564;53.312;9.790;2023-02-14T09:10:54;102857.06;;;7.92;100.00
39891;BME280;25564;53.312;9.790;2023-02-14T09:13:25;102859.13;;;8.02;100.00
39891;BME280;25564;53.312;9.790;2023-02-14T09:15:57;102863.81;;;8.12;100.00
39891;BME280;25564;53.312;9.790;2023-02-14T09:18:28;102858.84;;;8.24;100.00
39891;BME280;25564;53.312;9.790;2023-02-14T09:20:59;102859.00;;;8.30;100.00
39891;BME280;25564;53.312;9.790;2023-02-14T09:23:31;102828.81;;;8.22;100.00
39891;BME280;25564;53.312;9.790;2023-02-14T09:26:05;102853.25;;;8.46;100.00
39891;BME280;25564;53.312;9.790;2023-02-14T09:28:37;102832.91;;;8.44;100.00
39891;BME280;25564;53.312;9.790;2023-02-14T09:31:13;102859.91;;;8.65;100.00
39891;BME280;25564;53.312;9.790;2023-02-14T09:33:46;102851.38;;;8.77;100.00
39891;BME280;25564;53.312;9.790;2023-02-14T09:36:36;102854.22;;;8.86;100.00
39891;BME280;25564;53.312;9.790;2023-02-14T09:39:07;102849.13;;;8.94;100.00
39891;BME280;25564;53.312;9.790;2023-02-14T09:41:47;102859.03;;;9.02;100.00
39891;BME280;25564;53.312;9.790;2023-02-14T09:44:32;102847.75;;;9.11;100.00
39891;BME280;25564;53.312;9.790;2023-02-14T09:47:21;102826.44;;;9.05;100.00
39891;BME280;25564;53.312;9.790;2023-02-14T09:49:54;102846.41;;;9.30;100.00
39891;BME280;25564;53.312;9.790;2023-02-14T09:52:29;102828.84;;;9.35;100.00
39891;BME280;25564;53.312;9.790;2023-02-14T09:55:01;102823.78;;;9.47;100.00
39891;BME280;25564;53.312;9.790;2023-02-14T10:00:37;102842.78;;;9.68;100.00
39891;BME280;25564;53.312;9.790;2023-02-14T10:06:49;102834.28;;;9.86;100.00
39891;BME280;25564;53.312;9.790;2023-02-14T10:10:02;102835.31;;;9.93;100.00
39891;BME280;25564;53.312;9.790;2023-02-14T10:15:41;102809.69;;;9.93;100.00
39891;BME280;25564;53.312;9.790;2023-02-14T10:18:20;102828.53;;;10.08;100.00
39891;BME280;25564;53.312;9.790;2023-02-14T10:20:57;102820.75;;;10.18;100.00
39891;BME280;25564;53.312;9.790;2023-02-14T10:23:34;102824.53;;;10.30;100.00
39891;BME280;25564;53.312;9.790;2023-02-14T10:26:15;102824.75;;;10.44;100.00
39891;BME280;25564;53.312;9.790;2023-02-14T10:28:48;102819.50;;;10.48;100.00
39891;BME280;25564;53.312;9.790;2023-02-14T10:31:23;102828.50;;;10.58;100.00
39891;BME280;25564;53.312;9.790;2023-02-14T10:34:15;102825.16;;;10.70;100.00
39891;BME280;25564;53.312;9.790;2023-02-14T10:37:22;102820.94;;;10.82;100.00
39891;BME280;25564;53.312;9.790;2023-02-14T10:48:50;102801.78;;;11.05;100.00
39891;BME280;25564;53.312;9.790;2023-02-14T10:51:35;102827.69;;;11.20;99.77
39891;BME280;25564;53.312;9.790;2023-02-14T10:54:25;102825.09;;;11.26;99.77
39891;BME280;25564;53.312;9.790;2023-02-14T11:02:29;102812.97;;;11.49;99.10
39891;BME280;25564;53.312;9.790;2023-02-14T11:05:03;102802.41;;;11.55;99.10
39891;BME280;25564;53.312;9.790;2023-02-14T11:07:34;102801.63;;;11.65;99.02
39891;BME280;25564;53.312;9.790;2023-02-14T11:10:10;102793.84;;;11.77;98.91
39891;BME280;25564;53.312;9.790;2023-02-14T11:12:44;102800.16;;;11.87;98.62
39891;BME280;25564;53.312;9.790;2023-02-14T11:17:46;102788.72;;;11.99;98.10
39891;BME280;25564;53.312;9.790;2023-02-14T11:22:52;102800.13;;;11.86;97.79
39891;BME280;25564;53.312;9.790;2023-02-14T11:25:28;102782.38;;;11.85;97.72
39891;BME280;25564;53.312;9.790;2023-02-14T11:28:07;102779.78;;;11.91;97.78
39891;BME280;25564;53.312;9.790;2023-02-14T11:30:47;102775.50;;;12.05;97.79
39891;BME280;25564;53.312;9.790;2023-02-14T11:33:39;102770.25;;;12.14;97.45
39891;BME280;25564;53.312;9.790;2023-02-14T11:36:14;102771.13;;;12.13;97.29
39891;BME280;25564;53.312;9.790;2023-02-14T11:38:55;102774.66;;;12.12;97.25
39891;BME280;25564;53.312;9.790;2023-02-14T11:41:45;102767.63;;;12.19;97.38
39891;BME280;25564;53.312;9.790;2023-02-14T11:44:21;102762.28;;;12.14;97.08
39891;BME280;25564;53.312;9.790;2023-02-14T11:46:53;102752.56;;;12.21;97.47
39891;BME280;25564;53.312;9.790;2023-02-14T11:49:33;102747.31;;;12.30;98.28
39891;BME280;25564;53.312;9.790;2023-02-14T11:52:09;102708.16;;;12.14;98.01
39891;BME280;25564;53.312;9.790;2023-02-14T11:54:41;102746.44;;;12.29;97.73
39891;BME280;25564;53.312;9.790;2023-02-14T11:57:29;102720.50;;;12.05;97.38
39891;BME280;25564;53.312;9.790;2023-02-14T12:00:13;102749.94;;;12.24;97.44
39891;BME280;25564;53.312;9.790;2023-02-14T12:02:47;102749.91;;;12.22;97.29
39891;BME280;25564;53.312;9.790;2023-02-14T12:05:29;102736.59;;;12.22;97.08
39891;BME280;25564;53.312;9.790;2023-02-14T12:08:03;102733.97;;;12.24;96.97
39891;BME280;25564;53.312;9.790;2023-02-14T12:10:38;102730.44;;;12.29;96.98
39891;BME280;25564;53.312;9.790;2023-02-14T12:18:35;102722.59;;;12.46;96.38
39891;BME280;25564;53.312;9.790;2023-02-14T12:21:22;102727.00;;;12.42;96.45
39891;BME280;25564;53.312;9.790;2023-02-14T12:26:56;102715.50;;;12.53;96.47
39891;BME280;25564;53.312;9.790;2023-02-14T12:29:51;102695.09;;;12.58;96.08
39891;BME280;25564;53.312;9.790;2023-02-14T12:32:26;102682.75;;;12.69;95.96
39891;BME280;25564;53.312;9.790;2023-02-14T12:38:29;102696.13;;;12.80;95.45
39891;BME280;25564;53.312;9.790;2023-02-14T12:44:17;102665.06;;;12.89;95.17
39891;BME280;25564;53.312;9.790;2023-02-14T12:47:07;102687.38;;;13.09;94.84
39891;BME280;25564;53.312;9.790;2023-02-14T12:52:56;102681.13;;;13.04;94.41
39891;BME280;25564;53.312;9.790;2023-02-14T12:58:28;102679.31;;;12.99;94.32
39891;BME280;25564;53.312;9.790;2023-02-14T13:01:25;102675.78;;;13.01;94.04
39891;BME280;25564;53.312;9.790;2023-02-14T13:04:43;102673.13;;;13.01;93.59
39891;BME280;25564;53.312;9.790;2023-02-14T13:07:31;102663.31;;;12.94;93.47
39891;BME280;25564;53.312;9.790;2023-02-14T13:21:34;102634.94;;;13.05;92.53
39891;BME280;25564;53.312;9.790;2023-02-14T13:24:19;102645.63;;;13.15;92.32
39891;BME280;25564;53.312;9.790;2023-02-14T13:26:55;102638.50;;;13.09;92.13
39891;BME280;25564;53.312;9.790;2023-02-14T13:29:49;102634.94;;;13.04;91.84
39891;BME280;25564;53.312;9.790;2023-02-14T13:32:32;102624.28;;;13.08;91.59
39891;BME280;25564;53.312;9.790;2023-02-14T13:35:06;102625.25;;;13.23;92.00
39891;BME280;25564;53.312;9.790;2023-02-14T13:37:38;102627.91;;;13.29;91.55
39891;BME280;25564;53.312;9.790;2023-02-14T13:40:17;102618.13;;;13.28;91.11
39891;BME280;25564;53.312;9.790;2023-02-14T13:42:53;102623.47;;;13.31;91.26
39891;BME280;25564;53.312;9.790;2023-02-14T13:48:20;102613.72;;;13.37;90.51
39891;BME280;25564;53.312;9.790;2023-02-14T13:53:41;102621.72;;;13.39;90.45
39891;BME280;25564;53.312;9.790;2023-02-14T13:58:54;102617.25;;;13.38;89.85
39891;BME280;25564;53.312;9.790;2023-02-14T14:01:41;102611.03;;;13.40;89.73
39891;BME280;25564;53.312;9.790;2023-02-14T14:15:14;102597.72;;;13.42;89.05
39891;BME280;25564;53.312;9.790;2023-02-14T14:20:44;102604.81;;;13.57;89.04
39891;BME280;25564;53.312;9.790;2023-02-14T14:23:27;102600.34;;;13.54;88.54
39891;BME280;25564;53.312;9.790;2023-02-14T14:26:00;102604.81;;;13.55;89.13
39891;BME280;25564;53.312;9.790;2023-02-14T14:28:32;102601.25;;;13.65;88.53
39891;BME280;25564;53.312;9.790;2023-02-14T14:31:03;102604.81;;;13.73;88.53
39891;BME280;25564;53.312;9.790;2023-02-14T14:33:34;102601.25;;;13.74;88.66
39891;BME280;25564;53.312;9.790;2023-02-14T14:36:09;102593.25;;;13.68;87.96
39891;BME280;25564;53.312;9.790;2023-02-14T14:38:52;102598.56;;;13.61;87.90
39891;BME280;25564;53.312;9.790;2023-02-14T14:41:28;102564.81;;;13.40;87.81
39891;BME280;25564;53.312;9.790;2023-02-14T14:44:00;102587.94;;;13.47;87.98
39891;BME280;25564;53.312;9.790;2023-02-14T14:46:32;102582.59;;;13.46;87.87
39891;BME280;25564;53.312;9.790;2023-02-14T14:49:04;102578.16;;;13.37;87.72
39891;BME280;25564;53.312;9.790;2023-02-14T14:51:39;102579.03;;;13.36;88.11
39891;BME280;25564;53.312;9.790;2023-02-14T14:56:55;102574.53;;;13.10;88.48
39891;BME280;25564;53.312;9.790;2023-02-14T14:59:34;102558.50;;;12.89;88.66
39891;BME280;25564;53.312;9.790;2023-02-14T15:02:23;102575.38;;;12.88;88.53
39891;BME280;25564;53.312;9.790;2023-02-14T15:04:56;102578.00;;;12.77;88.56
39891;BME280;25564;53.312;9.790;2023-02-14T15:07:33;102570.88;;;12.69;88.37
39891;BME280;25564;53.312;9.790;2023-02-14T15:10:23;102578.81;;;12.61;88.47
39891;BME280;25564;53.312;9.790;2023-02-14T15:12:57;102572.56;;;12.52;88.55
39891;BME280;25564;53.312;9.790;2023-02-14T15:15:48;102562.81;;;12.44;89.02
39891;BME280;25564;53.312;9.790;2023-02-14T15:18:21;102571.66;;;12.37;88.81
39891;BME280;25564;53.312;9.790;2023-02-14T15:20:52;102562.72;;;12.29;88.71
39891;BME280;25564;53.312;9.790;2023-02-14T15:23:24;102546.69;;;12.13;88.86
39891;BME280;25564;53.312;9.790;2023-02-14T15:25:55;102559.13;;;12.17;88.90